sensor_id;sensor_type;location;lat;lon;timestamp;pressure;altitude;pressure_sealevel;temperature;humidity
10392;BME280;5242;49.244;6.774;2023-08-20T00:05:49;99956.59;;;19.34;nan
10392;BME280;5242;49.244;6.774;2023-08-20T00:13:41;99949.13;;;19.31;nan
10392;BME280;5242;49.244;6.774;2023-08-20T00:21:33;99962.16;;;19.27;nan
10392;BME280;5242;49.244;6.774;2023-08-20T00:29:25;99957.88;;;19.19;nan
10392;BME280;5242;49.244;6.774;2023-08-20T00:37:17;99966.59;;;19.07;nan
10392;BME280;5242;49.244;6.774;2023-08-20T00:45:09;99954.38;;;19.04;nan
10392;BME280;5242;49.244;6.774;2023-08-20T00:53:01;99997.00;;;19.00;nan
10392;BME280;5242;49.244;6.774;2023-08-20T01:00:54;99943.81;;;19.00;nan
10392;BME280;5242;49.244;6.774;2023-08-20T01:08:47;99927.69;;;18.69;nan
10392;BME280;5242;49.244;6.774;2023-08-20T01:25:11;99924.94;;;18.58;nan
10392;BME280;5242;49.244;6.774;2023-08-20T01:33:03;99937.53;;;18.63;nan
10392;BME280;5242;49.244;6.774;2023-08-20T01:40:55;99943.44;;;18.68;nan
10392;BME280;5242;49.244;6.774;2023-08-20T01:48:47;99960.78;;;18.73;nan
10392;BME280;5242;49.244;6.774;2023-08-20T01:56:39;99978.94;;;18.66;nan
10392;BME280;5242;49.244;6.774;2023-08-20T02:12:25;99980.53;;;18.57;nan
10392;BME280;5242;49.244;6.774;2023-08-20T02:20:17;99963.56;;;18.47;nan
10392;BME280;5242;49.244;6.774;2023-08-20T02:28:09;99963.56;;;18.47;nan
10392;BME280;5242;49.244;6.774;2023-08-20T02:36:04;99947.81;;;18.55;nan
10392;BME280;5242;49.244;6.774;2023-08-20T02:43:56;99934.78;;;18.63;nan
10392;BME280;5242;49.244;6.774;2023-08-20T02:51:48;99941.47;;;18.65;nan
10392;BME280;5242;49.244;6.774;2023-08-20T02:59:40;99947.38;;;18.67;nan
10392;BME280;5242;49.244;6.774;2023-08-20T03:07:31;99942.63;;;18.79;nan
10392;BME280;5242;49.244;6.774;2023-08-20T03:15:24;99937.50;;;18.88;nan
10392;BME280;5242;49.244;6.774;2023-08-20T03:23:16;99960.34;;;18.96;nan
10392;BME280;5242;49.244;6.774;2023-08-20T03:31:07;99953.63;;;18.93;nan
10392;BME280;5242;49.244;6.774;2023-08-20T03:38:59;99960.38;;;18.74;nan
10392;BME280;5242;49.244;6.774;2023-08-20T03:46:51;99973.00;;;18.79;nan
10392;BME280;5242;49.244;6.774;2023-08-20T03:54:43;99984.00;;;18.86;nan
10392;BME280;5242;49.244;6.774;2023-08-20T04:02:35;99985.59;;;18.90;nan
10392;BME280;5242;49.244;6.774;2023-08-20T04:10:27;99998.19;;;18.88;nan
10392;BME280;5242;49.244;6.774;2023-08-20T04:18:19;100001.41;;;18.79;nan
10392;BME280;5242;49.244;6.774;2023-08-20T04:26:11;99996.25;;;18.67;nan
10392;BME280;5242;49.244;6.774;2023-08-20T04:34:03;99988.78;;;18.57;nan
10392;BME280;5242;49.244;6.774;2023-08-20T04:41:55;100000.22;;;18.52;nan
10392;BME280;5242;49.244;6.774;2023-08-20T04:49:49;100003.38;;;18.54;nan
10392;BME280;5242;49.244;6.774;2023-08-20T04:57:41;100022.28;;;18.59;nan
10392;BME280;5242;49.244;6.774;2023-08-20T05:05:33;100008.88;;;18.61;nan
10392;BME280;5242;49.244;6.774;2023-08-20T05:13:24;100010.47;;;18.55;nan
10392;BME280;5242;49.244;6.774;2023-08-20T05:21:16;100025.44;;;18.57;nan
10392;BME280;5242;49.244;6.774;2023-08-20T05:29:08;100023.47;;;18.79;nan
10392;BME280;5242;49.244;6.774;2023-08-20T05:37:00;100020.19;;;19.20;nan
10392;BME280;5242;49.244;6.774;2023-08-20T05:44:52;100025.94;;;19.54;nan
10392;BME280;5242;49.244;6.774;2023-08-20T05:52:44;100023.78;;;19.91;nan
10392;BME280;5242;49.244;6.774;2023-08-20T06:00:36;100019.78;;;20.51;nan
10392;BME280;5242;49.244;6.774;2023-08-20T06:08:28;100025.16;;;20.69;nan
10392;BME280;5242;49.244;6.774;2023-08-20T06:16:20;100026.06;;;20.59;nan
10392;BME280;5242;49.244;6.774;2023-08-20T06:24:13;100031.88;;;20.72;nan
10392;BME280;5242;49.244;6.774;2023-08-20T06:32:05;100040.56;;;21.12;nan
10392;BME280;5242;49.244;6.774;2023-08-20T06:39:57;100056.75;;;21.78;nan
10392;BME280;5242;49.244;6.774;2023-08-20T06:47:49;100049.50;;;22.62;nan
10392;BME280;5242;49.244;6.774;2023-08-20T06:55:41;100047.56;;;23.06;nan
10392;BME280;5242;49.244;6.774;2023-08-20T07:03:43;100066.00;;;23.56;nan
10392;BME280;5242;49.244;6.774;2023-08-20T07:11:35;100051.91;;;24.52;nan
10392;BME280;5242;49.244;6.774;2023-08-20T07:19:27;100061.38;;;25.17;nan
10392;BME280;5242;49.244;6.774;2023-08-20T07:27:19;100050.34;;;25.68;nan
10392;BME280;5242;49.244;6.774;2023-08-20T07:35:11;100041.72;;;26.39;nan
10392;BME280;5242;49.244;6.774;2023-08-20T07:43:03;100070.09;;;26.98;nan
10392;BME280;5242;49.244;6.774;2023-08-20T07:50:55;100058.47;;;27.75;nan
10392;BME280;5242;49.244;6.774;2023-08-20T07:58:46;100046.50;;;28.65;nan
10392;BME280;5242;49.244;6.774;2023-08-20T08:06:38;100028.59;;;28.99;nan
10392;BME280;5242;49.244;6.774;2023-08-20T08:14:30;100028.50;;;29.54;nan
10392;BME280;5242;49.244;6.774;2023-08-20T08:22:22;100033.56;;;30.65;nan
10392;BME280;5242;49.244;6.774;2023-08-20T08:30:14;100040.03;;;33.74;nan
10392;BME280;5242;49.244;6.774;2023-08-20T08:38:06;100056.44;;;36.11;nan
10392;BME280;5242;49.244;6.774;2023-08-20T08:45:59;100056.28;;;37.51;nan
10392;BME280;5242;49.244;6.774;2023-08-20T08:53:51;100051.75;;;38.65;nan
10392;BME280;5242;49.244;6.774;2023-08-20T09:01:43;100051.22;;;39.04;nan
10392;BME280;5242;49.244;6.774;2023-08-20T09:09:35;100058.50;;;39.38;nan
10392;BME280;5242;49.244;6.774;2023-08-20T09:17:28;100064.34;;;38.26;nan
10392;BME280;5242;49.244;6.774;2023-08-20T09:25:20;100065.19;;;37.66;nan
10392;BME280;5242;49.244;6.774;2023-08-20T09:33:12;100041.03;;;38.52;nan
10392;BME280;5242;49.244;6.774;2023-08-20T09:41:08;100043.53;;;39.31;nan
10392;BME280;5242;49.244;6.774;2023-08-20T09:49:00;100039.66;;;39.80;nan
10392;BME280;5242;49.244;6.774;2023-08-20T09:56:54;100033.66;;;39.51;nan
10392;BME280;5242;49.244;6.774;2023-08-20T10:04:48;100040.72;;;39.64;nan
10392;BME280;5242;49.244;6.774;2023-08-20T10:12:41;100041.09;;;40.27;nan
10392;BME280;5242;49.244;6.774;2023-08-20T10:20:38;100041.13;;;40.88;nan
10392;BME280;5242;49.244;6.774;2023-08-20T10:28:31;100029.31;;;39.77;nan
10392;BME280;5242;49.244;6.774;2023-08-20T10:36:24;100038.09;;;38.39;nan
10392;BME280;5242;49.244;6.774;2023-08-20T10:44:23;100028.88;;;39.27;nan
10392;BME280;5242;49.244;6.774;2023-08-20T10:52:18;100012.69;;;39.81;nan
10392;BME280;5242;49.244;6.774;2023-08-20T11:00:15;100010.84;;;39.97;nan
10392;BME280;5242;49.244;6.774;2023-08-20T11:08:07;100014.84;;;40.68;nan
10392;BME280;5242;49.244;6.774;2023-08-20T11:16:01;100016.28;;;40.48;nan
10392;BME280;5242;49.244;6.774;2023-08-20T11:23:53;100007.41;;;40.38;nan
10392;BME280;5242;49.244;6.774;2023-08-20T11:31:50;100005.94;;;40.72;nan
10392;BME280;5242;49.244;6.774;2023-08-20T11:39:42;100000.78;;;40.57;nan
10392;BME280;5242;49.244;6.774;2023-08-20T11:47:41;99997.53;;;40.87;nan
10392;BME280;5242;49.244;6.774;2023-08-20T11:55:33;99994.00;;;40.94;nan
10392;BME280;5242;49.244;6.774;2023-08-20T12:03:29;99979.91;;;42.53;nan
10392;BME280;5242;49.244;6.774;2023-08-20T12:11:29;99977.72;;;42.97;nan
10392;BME280;5242;49.244;6.774;2023-08-20T12:19:21;99974.25;;;42.84;nan
10392;BME280;5242;49.244;6.774;2023-08-20T12:27:13;99970.72;;;42.47;nan
10392;BME280;5242;49.244;6.774;2023-08-20T12:35:06;99966.97;;;42.67;nan
10392;BME280;5242;49.244;6.774;2023-08-20T12:42:58;99962.41;;;42.87;nan
10392;BME280;5242;49.244;6.774;2023-08-20T12:50:50;99965.44;;;42.74;nan
10392;BME280;5242;49.244;6.774;2023-08-20T12:58:41;99946.03;;;43.57;nan
10392;BME280;5242;49.244;6.774;2023-08-20T13:06:33;99950.97;;;44.27;nan
10392;BME280;5242;49.244;6.774;2023-08-20T13:14:26;99940.47;;;44.22;nan
10392;BME280;5242;49.244;6.774;2023-08-20T13:22:18;99929.31;;;43.86;nan
10392;BME280;5242;49.244;6.774;2023-08-20T13:30:10;99924.63;;;43.50;nan
10392;BME280;5242;49.244;6.774;2023-08-20T13:38:02;99918.59;;;41.39;nan
10392;BME280;5242;49.244;6.774;2023-08-20T13:45:56;99922.25;;;39.09;nan
10392;BME280;5242;49.244;6.774;2023-08-20T13:53:47;99922.16;;;38.07;nan
10392;BME280;5242;49.244;6.774;2023-08-20T14:01:40;99926.91;;;36.89;nan
10392;BME280;5242;49.244;6.774;2023-08-20T14:09:31;99916.59;;;36.86;nan
10392;BME280;5242;49.244;6.774;2023-08-20T14:17:27;99917.56;;;36.59;nan
10392;BME280;5242;49.244;6.774;2023-08-20T14:25:19;99916.59;;;35.81;nan
10392;BME280;5242;49.244;6.774;2023-08-20T14:33:11;99916.00;;;36.10;nan
10392;BME280;5242;49.244;6.774;2023-08-20T14:41:03;99907.09;;;36.37;nan
10392;BME280;5242;49.244;6.774;2023-08-20T14:48:55;99902.31;;;35.11;nan
10392;BME280;5242;49.244;6.774;2023-08-20T14:56:47;99899.88;;;34.42;nan
10392;BME280;5242;49.244;6.774;2023-08-20T15:04:39;99900.06;;;34.22;nan
10392;BME280;5242;49.244;6.774;2023-08-20T15:12:34;99889.81;;;34.24;nan
10392;BME280;5242;49.244;6.774;2023-08-20T15:20:26;99883.19;;;33.84;nan
10392;BME280;5242;49.244;6.774;2023-08-20T15:28:19;99889.38;;;33.83;nan
10392;BME280;5242;49.244;6.774;2023-08-20T15:36:11;99881.53;;;34.15;nan
10392;BME280;5242;49.244;6.774;2023-08-20T15:44:03;99875.16;;;33.66;nan
10392;BME280;5242;49.244;6.774;2023-08-20T15:51:54;99877.19;;;32.90;nan
10392;BME280;5242;49.244;6.774;2023-08-20T15:59:46;99869.81;;;32.99;nan
10392;BME280;5242;49.244;6.774;2023-08-20T16:07:39;99873.47;;;33.42;nan
10392;BME280;5242;49.244;6.774;2023-08-20T16:15:32;99868.34;;;33.46;nan
10392;BME280;5242;49.244;6.774;2023-08-20T16:23:24;99873.16;;;33.34;nan
10392;BME280;5242;49.244;6.774;2023-08-20T16:31:16;99875.41;;;33.25;nan
10392;BME280;5242;49.244;6.774;2023-08-20T16:39:07;99877.91;;;33.17;nan
10392;BME280;5242;49.244;6.774;2023-08-20T16:46:59;99873.84;;;32.92;nan
10392;BME280;5242;49.244;6.774;2023-08-20T16:54:53;99884.66;;;32.67;nan
10392;BME280;5242;49.244;6.774;2023-08-20T17:02:46;99884.63;;;32.41;nan
10392;BME280;5242;49.244;6.774;2023-08-20T17:10:38;99875.00;;;32.27;nan
10392;BME280;5242;49.244;6.774;2023-08-20T17:18:32;99883.13;;;31.99;nan
10392;BME280;5242;49.244;6.774;2023-08-20T17:26:24;99881.28;;;31.40;nan
10392;BME280;5242;49.244;6.774;2023-08-20T17:34:16;99881.22;;;30.61;nan
10392;BME280;5242;49.244;6.774;2023-08-20T17:42:08;99888.63;;;29.95;nan
10392;BME280;5242;49.244;6.774;2023-08-20T17:49:59;99896.84;;;29.41;nan
10392;BME280;5242;49.244;6.774;2023-08-20T17:57:51;99902.59;;;29.04;nan
10392;BME280;5242;49.244;6.774;2023-08-20T18:05:43;99899.06;;;28.76;nan
10392;BME280;5242;49.244;6.774;2023-08-20T18:13:35;99908.88;;;28.35;nan
10392;BME280;5242;49.244;6.774;2023-08-20T18:21:27;99908.84;;;27.98;nan
10392;BME280;5242;49.244;6.774;2023-08-20T18:29:19;99922.09;;;27.57;nan
10392;BME280;5242;49.244;6.774;2023-08-20T18:37:10;99928.66;;;27.23;nan
10392;BME280;5242;49.244;6.774;2023-08-20T18:45:02;99935.78;;;27.02;nan
10392;BME280;5242;49.244;6.774;2023-08-20T18:52:54;99945.81;;;26.90;nan
10392;BME280;5242;49.244;6.774;2023-08-20T19:00:47;99951.88;;;26.66;nan
10392;BME280;5242;49.244;6.774;2023-08-20T19:08:39;99955.22;;;26.27;nan
10392;BME280;5242;49.244;6.774;2023-08-20T19:16:31;99962.44;;;25.89;nan
10392;BME280;5242;49.244;6.774;2023-08-20T19:24:23;99970.00;;;25.63;nan
10392;BME280;5242;49.244;6.774;2023-08-20T19:32:14;99980.19;;;25.15;nan
10392;BME280;5242;49.244;6.774;2023-08-20T19:40:08;99990.06;;;24.90;nan
10392;BME280;5242;49.244;6.774;2023-08-20T19:48:00;99993.56;;;24.78;nan
10392;BME280;5242;49.244;6.774;2023-08-20T19:55:56;99997.84;;;24.66;nan
10392;BME280;5242;49.244;6.774;2023-08-20T20:03:49;100011.38;;;24.51;nan
10392;BME280;5242;49.244;6.774;2023-08-20T20:11:41;100016.56;;;24.33;nan
10392;BME280;5242;49.244;6.774;2023-08-20T20:19:32;100023.38;;;23.99;nan
10392;BME280;5242;49.244;6.774;2023-08-20T20:27:24;100036.63;;;23.75;nan
10392;BME280;5242;49.244;6.774;2023-08-20T20:35:16;100031.94;;;23.52;nan
10392;BME280;5242;49.244;6.774;2023-08-20T20:43:09;100037.94;;;23.31;nan
10392;BME280;5242;49.244;6.774;2023-08-20T20:51:00;100031.19;;;23.12;nan
10392;BME280;5242;49.244;6.774;2023-08-20T20:58:52;100036.41;;;22.86;nan
10392;BME280;5242;49.244;6.774;2023-08-20T21:06:44;100038.28;;;22.69;nan
10392;BME280;5242;49.244;6.774;2023-08-20T21:14:36;100050.19;;;22.70;nan
10392;BME280;5242;49.244;6.774;2023-08-20T21:22:28;100043.97;;;22.62;nan
10392;BME280;5242;49.244;6.774;2023-08-20T21:30:19;100056.88;;;22.49;nan
10392;BME280;5242;49.244;6.774;2023-08-20T21:38:11;100047.50;;;22.43;nan
10392;BME280;5242;49.244;6.774;2023-08-20T21:46:04;100048.19;;;22.23;nan
10392;BME280;5242;49.244;6.774;2023-08-20T21:53:56;100048.97;;;21.97;nan
10392;BME280;5242;49.244;6.774;2023-08-20T22:01:48;100054.81;;;21.75;nan
10392;BME280;5242;49.244;6.774;2023-08-20T22:09:39;100049.47;;;21.61;nan
10392;BME280;5242;49.244;6.774;2023-08-20T22:17:31;100049.09;;;21.59;nan
10392;BME280;5242;49.244;6.774;2023-08-20T22:25:23;100054.56;;;21.62;nan
10392;BME280;5242;49.244;6.774;2023-08-20T22:33:15;100060.31;;;21.48;nan
10392;BME280;5242;49.244;6.774;2023-08-20T22:41:07;100052.50;;;21.39;nan
10392;BME280;5242;49.244;6.774;2023-08-20T22:48:59;100048.59;;;21.33;nan
10392;BME280;5242;49.244;6.774;2023-08-20T22:56:51;100052.06;;;21.06;nan
10392;BME280;5242;49.244;6.774;2023-08-20T23:04:42;100053.00;;;20.93;nan
10392;BME280;5242;49.244;6.774;2023-08-20T23:12:34;100050.75;;;20.80;nan
10392;BME280;5242;49.244;6.774;2023-08-20T23:20:27;100051.22;;;20.72;nan
10392;BME280;5242;49.244;6.774;2023-08-20T23:28:19;100049.34;;;20.61;nan
10392;BME280;5242;49.244;6.774;2023-08-20T23:36:15;100052.53;;;20.53;nan
10392;BME280;5242;49.244;6.774;2023-08-20T23:44:07;100045.13;;;20.42;nan
10392;BME280;5242;49.244;6.774;2023-08-20T23:51:59;100052.59;;;20.49;nan
10392;BME280;5242;49.244;6.774;2023-08-20T23:59:51;100052.19;;;20.47;nan
